createdAt,value
2019-03-21T00:00:51.928Z,36.44
2019-03-21T00:01:51.911Z,35.54
2019-03-21T00:02:51.897Z,35.85
2019-03-21T00:03:51.907Z,35.42
2019-03-21T00:04:51.903Z,35.83
2019-03-21T00:05:51.863Z,35.72
2019-03-21T00:06:51.854Z,35.83
2019-03-21T00:07:51.842Z,36.04
2019-03-21T00:08:51.854Z,36.02
2019-03-21T00:09:51.819Z,36.02
2019-03-21T00:10:51.809Z,36.02
2019-03-21T00:11:51.796Z,35.93
2019-03-21T00:12:51.789Z,35.93
2019-03-21T00:13:51.796Z,35.74
2019-03-21T00:14:51.765Z,36.02
2019-03-21T00:15:51.752Z,36.02
2019-03-21T00:16:51.741Z,35.93
2019-03-21T00:17:51.732Z,35.93
2019-03-21T00:18:51.742Z,35.42
2019-03-21T00:19:51.729Z,36.13
2019-03-21T00:20:51.696Z,35.83
2019-03-21T00:21:51.686Z,35.93
2019-03-21T00:22:51.676Z,35.83
2019-03-21T00:23:51.663Z,36.22
2019-03-21T00:24:51.673Z,35.93
2019-03-21T00:25:51.641Z,36.02
2019-03-21T00:26:51.630Z,35.83
2019-03-21T00:27:51.618Z,35.33
2019-03-21T00:28:51.608Z,36.02
2019-03-21T00:29:51.682Z,35.72
2019-03-21T00:30:51.585Z,35.23
2019-03-21T00:31:51.577Z,35.91
2019-03-21T00:32:51.563Z,35.33
2019-03-21T00:33:51.552Z,35.93
2019-03-21T00:34:51.563Z,35.42
2019-03-21T00:35:51.530Z,35.33
2019-03-21T00:36:51.519Z,35.93
2019-03-21T00:37:51.514Z,35.13
2019-03-21T00:38:51.496Z,35.93
2019-03-21T00:39:51.506Z,36.01
2019-03-21T00:40:51.475Z,35.13
2019-03-21T00:41:51.462Z,34.93
2019-03-21T00:42:51.452Z,35.11
2019-03-21T00:43:51.441Z,35.13
2019-03-21T00:44:51.450Z,35.13
2019-03-21T00:45:51.417Z,34.93
2019-03-21T00:46:51.412Z,35.11
2019-03-21T00:47:51.396Z,35.21
2019-03-21T00:48:51.385Z,34.93
2019-03-21T00:49:51.396Z,35.03
2019-03-21T00:50:51.364Z,35.13
2019-03-21T00:51:51.351Z,35.23
2019-03-21T00:52:51.340Z,35.61
2019-03-21T00:53:51.332Z,35.91
2019-03-21T00:54:51.342Z,35.61
2019-03-21T00:55:51.309Z,35.51
2019-03-21T00:56:51.295Z,35.51
2019-03-21T00:57:51.284Z,35.53
2019-03-21T00:58:51.275Z,35.51
2019-03-21T00:59:51.283Z,35.51
2019-03-21T01:00:51.254Z,35.11
2019-03-21T01:01:51.239Z,35.81
2019-03-21T01:02:51.227Z,35.91
2019-03-21T01:03:51.216Z,35.41
2019-03-21T01:04:51.229Z,35.53
2019-03-21T01:05:51.216Z,35.51
2019-03-21T01:06:51.183Z,35.51
2019-03-21T01:07:51.172Z,35.51
2019-03-21T01:08:51.161Z,35.81
2019-03-21T01:09:51.149Z,35.71
2019-03-21T01:10:51.161Z,35.61
2019-03-21T01:11:51.128Z,35.83
2019-03-21T01:12:51.116Z,35.72
2019-03-21T01:13:51.104Z,35.81
2019-03-21T01:14:51.099Z,35.42
2019-03-21T01:15:51.102Z,35.13
2019-03-21T01:16:51.074Z,35.63
2019-03-21T01:17:51.060Z,35.93
2019-03-21T01:18:51.054Z,35.81
2019-03-21T01:19:51.038Z,35.23
2019-03-21T01:20:51.051Z,35.11
2019-03-21T01:21:51.019Z,35.23
2019-03-21T01:22:51.004Z,35.42
2019-03-21T01:23:50.993Z,34.93
2019-03-21T01:24:50.982Z,35.23
2019-03-21T01:25:50.997Z,35.13
2019-03-21T01:26:50.959Z,35.23
2019-03-21T01:27:50.949Z,35.13
2019-03-21T01:28:50.939Z,35.23
2019-03-21T01:29:50.929Z,35.23
2019-03-21T01:30:50.936Z,34.93
2019-03-21T01:31:50.904Z,34.93
2019-03-21T01:32:50.897Z,35.13
2019-03-21T01:33:50.882Z,35.11
2019-03-21T01:34:50.872Z,35.23
2019-03-21T01:35:50.890Z,35.23
2019-03-21T01:36:50.849Z,35.13
2019-03-21T01:37:50.838Z,34.91
2019-03-21T01:38:50.828Z,35.03
2019-03-21T01:39:50.815Z,35.13
2019-03-21T01:40:50.827Z,34.93
2019-03-21T01:41:50.792Z,34.93
2019-03-21T01:42:50.784Z,35.23
2019-03-21T01:43:50.770Z,35.13
2019-03-21T01:44:50.759Z,34.93
2019-03-21T01:45:50.771Z,35.13
2019-03-21T01:46:50.757Z,35.03
2019-03-21T01:47:50.727Z,35.13
2019-03-21T01:48:50.714Z,34.93
2019-03-21T01:49:50.706Z,35.13
2019-03-21T01:50:50.693Z,35.33
2019-03-21T01:51:50.702Z,35.23
2019-03-21T01:52:50.670Z,35.33
2019-03-21T01:53:50.659Z,35.23
2019-03-21T01:54:50.648Z,35.13
2019-03-21T01:55:50.638Z,35.13
2019-03-21T01:56:50.646Z,35.13
2019-03-21T01:57:50.614Z,35.13
2019-03-21T01:58:50.604Z,34.93
2019-03-21T01:59:50.594Z,34.93
2019-03-21T02:00:50.582Z,34.93
2019-03-21T02:01:50.592Z,35.21
2019-03-21T02:02:50.559Z,35.21
2019-03-21T02:03:50.551Z,34.93
2019-03-21T02:04:50.539Z,35.03
2019-03-21T02:05:50.526Z,35.72
2019-03-21T02:06:50.537Z,35.42
2019-03-21T02:07:50.504Z,35.13
2019-03-21T02:08:50.493Z,35.93
2019-03-21T02:09:50.481Z,35.13
2019-03-21T02:10:50.470Z,34.93
2019-03-21T02:11:50.481Z,35.13
2019-03-21T02:12:50.470Z,35.13
2019-03-21T02:13:50.440Z,35.13
2019-03-21T02:14:52.308Z,34.91
2019-03-21T02:15:50.862Z,35.03
2019-03-21T02:16:50.403Z,35.13
2019-03-21T02:17:50.412Z,35.03
2019-03-21T02:18:50.381Z,35.13
2019-03-21T02:19:50.373Z,35.13
2019-03-21T02:20:50.358Z,35.03
2019-03-21T02:21:50.347Z,35.21
2019-03-21T02:22:50.359Z,35.03
2019-03-21T02:23:50.326Z,35.13
2019-03-21T02:24:50.317Z,35.23
2019-03-21T02:25:50.304Z,35.42
2019-03-21T02:26:50.295Z,35.03
2019-03-21T02:27:50.302Z,35.13
2019-03-21T02:28:50.271Z,34.93
2019-03-21T02:29:50.260Z,35.03
2019-03-21T02:30:50.252Z,35.13
2019-03-21T02:31:50.237Z,35.21
2019-03-21T02:32:50.274Z,35.33
2019-03-21T02:33:50.214Z,34.93
2019-03-21T02:34:50.204Z,35.42
2019-03-21T02:35:50.192Z,35.23
2019-03-21T02:36:50.182Z,35.23
2019-03-21T02:37:50.199Z,35.23
2019-03-21T02:38:50.160Z,35.03
2019-03-21T02:39:59.407Z,35.03
2019-03-21T02:40:51.135Z,35.42
2019-03-21T02:41:50.126Z,35.42
2019-03-21T02:42:50.135Z,35.63
2019-03-21T02:43:50.105Z,35.93
2019-03-21T02:44:50.172Z,35.63
2019-03-21T02:45:50.081Z,35.93
2019-03-21T02:46:50.089Z,35.63
2019-03-21T02:47:50.080Z,35.83
2019-03-21T02:48:50.047Z,35.93
2019-03-21T02:49:50.035Z,35.93
2019-03-21T02:50:50.027Z,35.42
2019-03-21T02:51:50.014Z,35.93
2019-03-21T02:52:50.025Z,35.42
2019-03-21T02:53:49.992Z,35.93
2019-03-21T02:54:49.981Z,35.53
2019-03-21T02:55:49.968Z,35.72
2019-03-21T02:56:49.958Z,35.83
2019-03-21T02:57:49.969Z,35.53
2019-03-21T02:58:49.957Z,35.61
2019-03-21T02:59:49.925Z,35.63
2019-03-21T03:00:49.917Z,35.42
2019-03-21T03:01:49.905Z,35.53
2019-03-21T03:02:49.892Z,35.53
2019-03-21T03:03:49.901Z,35.53
2019-03-21T03:04:49.869Z,35.61
2019-03-21T03:05:49.859Z,35.53
2019-03-21T03:06:49.848Z,35.53
2019-03-21T03:07:49.837Z,35.93
2019-03-21T03:08:49.850Z,35.53
2019-03-21T03:09:49.812Z,35.63
2019-03-21T03:10:49.806Z,35.63
2019-03-21T03:11:49.791Z,35.83
2019-03-21T03:12:49.792Z,35.53
2019-03-21T03:13:49.791Z,35.53
2019-03-21T03:14:49.757Z,35.53
2019-03-21T03:15:49.748Z,35.53
2019-03-21T03:16:49.737Z,35.53
2019-03-21T03:17:49.726Z,35.53
2019-03-21T03:18:49.734Z,35.53
2019-03-21T03:19:49.702Z,35.53
2019-03-21T03:20:49.698Z,35.53
2019-03-21T03:21:49.680Z,35.53
2019-03-21T03:22:49.669Z,35.53
2019-03-21T03:23:49.682Z,35.53
2019-03-21T03:24:49.648Z,35.83
2019-03-21T03:25:51.155Z,35.93
2019-03-21T03:26:49.625Z,35.83
2019-03-21T03:27:49.614Z,35.93
2019-03-21T03:28:49.625Z,35.63
2019-03-21T03:29:49.590Z,35.81
2019-03-21T03:30:49.603Z,35.83
2019-03-21T03:31:49.568Z,35.33
2019-03-21T03:32:49.560Z,35.53
2019-03-21T03:33:49.568Z,35.53
2019-03-21T03:34:49.565Z,35.53
2019-03-21T03:35:49.524Z,35.33
2019-03-21T03:36:49.513Z,35.42
2019-03-21T03:37:49.502Z,35.53
2019-03-21T03:38:49.496Z,35.53
2019-03-21T03:39:49.518Z,35.53
2019-03-21T03:40:49.469Z,35.42
2019-03-21T03:41:49.457Z,35.51
2019-03-21T03:42:49.445Z,35.53
2019-03-21T03:43:49.439Z,35.53
2019-03-21T03:44:49.447Z,35.53
2019-03-21T03:45:49.413Z,35.53
2019-03-21T03:46:49.401Z,35.53
2019-03-21T03:47:49.392Z,35.53
2019-03-21T03:48:49.378Z,35.51
2019-03-21T03:49:49.389Z,35.83
2019-03-21T03:50:49.358Z,35.53
2019-03-21T03:51:49.345Z,35.53
2019-03-21T03:52:49.335Z,35.83
2019-03-21T03:53:49.323Z,35.53
2019-03-21T03:54:49.333Z,35.93
2019-03-21T03:55:49.300Z,35.42
2019-03-21T03:56:49.294Z,35.53
2019-03-21T03:57:49.278Z,35.53
2019-03-21T03:58:49.274Z,35.53
2019-03-21T03:59:49.281Z,35.93
2019-03-21T04:00:49.265Z,35.93
2019-03-21T04:01:49.235Z,35.53
2019-03-21T04:02:49.222Z,35.63
2019-03-21T04:03:49.223Z,35.83
2019-03-21T04:04:49.229Z,35.53
2019-03-21T04:05:49.189Z,35.53
2019-03-21T04:06:49.177Z,35.83
2019-03-21T04:07:49.168Z,35.53
2019-03-21T04:08:49.158Z,35.53
2019-03-21T04:09:49.168Z,35.53
2019-03-21T04:10:49.134Z,35.53
2019-03-21T04:11:49.122Z,35.53
2019-03-21T04:12:49.112Z,35.83
2019-03-21T04:13:49.102Z,35.93
2019-03-21T04:14:49.111Z,35.53
2019-03-21T04:15:53.385Z,35.72
2019-03-21T04:16:49.067Z,35.83
2019-03-21T04:17:49.055Z,35.53
2019-03-21T04:18:49.046Z,35.53
2019-03-21T04:19:49.053Z,35.72
2019-03-21T04:20:49.043Z,35.42
2019-03-21T04:21:49.010Z,35.93
2019-03-21T04:22:48.999Z,35.93
2019-03-21T04:23:49.015Z,35.72
2019-03-21T04:24:48.976Z,35.53
2019-03-21T04:25:48.989Z,35.53
2019-03-21T04:26:48.955Z,35.53
2019-03-21T04:27:48.948Z,35.53
2019-03-21T04:28:48.932Z,35.53
2019-03-21T04:29:48.923Z,35.72
2019-03-21T04:30:48.937Z,35.53
2019-03-21T04:31:48.898Z,35.72
2019-03-21T04:32:48.888Z,35.53
2019-03-21T04:33:48.878Z,35.53
2019-03-21T04:34:48.866Z,35.53
2019-03-21T04:35:48.881Z,35.33
2019-03-21T04:36:48.845Z,35.42
2019-03-21T04:37:48.833Z,35.33
2019-03-21T04:38:48.830Z,35.53
2019-03-21T04:39:48.810Z,35.53
2019-03-21T04:40:48.821Z,35.53
2019-03-21T04:41:48.787Z,35.53
2019-03-21T04:42:48.776Z,35.33
2019-03-21T04:43:48.764Z,35.53
2019-03-21T04:44:48.756Z,35.53
2019-03-21T04:45:48.764Z,35.53
2019-03-21T04:46:48.732Z,35.53
2019-03-21T04:47:48.721Z,35.53
2019-03-21T04:48:48.709Z,35.33
2019-03-21T04:49:48.701Z,35.53
2019-03-21T04:50:48.708Z,35.53
2019-03-21T04:51:48.677Z,35.53
2019-03-21T04:52:48.664Z,35.42
2019-03-21T04:53:48.654Z,35.42
2019-03-21T04:54:48.644Z,35.03
2019-03-21T04:55:48.656Z,35.42
2019-03-21T04:56:48.641Z,35.23
2019-03-21T04:57:48.614Z,35.53
2019-03-21T04:58:48.599Z,35.42
2019-03-21T04:59:48.586Z,34.93
2019-03-21T05:00:48.579Z,35.42
2019-03-21T05:01:48.586Z,35.13
2019-03-21T05:02:48.555Z,35.42
2019-03-21T05:03:48.544Z,35.63
2019-03-21T05:04:48.533Z,35.53
2019-03-21T05:05:48.523Z,34.93
2019-03-21T05:06:48.563Z,35.42
2019-03-21T05:07:48.501Z,34.93
2019-03-21T05:08:48.489Z,35.13
2019-03-21T05:09:48.476Z,34.93
2019-03-21T05:10:48.464Z,35.13
2019-03-21T05:11:48.477Z,35.42
2019-03-21T05:12:48.443Z,34.93
2019-03-21T05:13:48.432Z,35.13
2019-03-21T05:14:48.420Z,35.23
2019-03-21T05:15:48.408Z,35.53
2019-03-21T05:16:48.420Z,35.13
2019-03-21T05:17:48.386Z,35.13
2019-03-21T05:18:48.375Z,35.33
2019-03-21T05:19:48.363Z,35.13
2019-03-21T05:20:48.352Z,35.13
2019-03-21T05:21:48.363Z,35.33
2019-03-21T05:22:48.330Z,35.03
2019-03-21T05:23:48.319Z,35.53
2019-03-21T05:24:48.308Z,34.93
2019-03-21T05:25:48.296Z,35.03
2019-03-21T05:26:48.316Z,35.13
2019-03-21T05:27:48.278Z,35.53
2019-03-21T05:28:48.264Z,35.53
2019-03-21T05:29:48.252Z,35.13
2019-03-21T05:30:48.240Z,35.53
2019-03-21T05:31:48.257Z,35.42
2019-03-21T05:32:48.220Z,35.63
2019-03-21T05:33:48.208Z,35.63
2019-03-21T05:34:48.197Z,35.44
2019-03-21T05:35:48.185Z,35.42
2019-03-21T05:36:50.344Z,35.53
2019-03-21T05:37:48.165Z,35.42
2019-03-21T05:38:48.152Z,35.23
2019-03-21T05:39:48.141Z,34.93
2019-03-21T05:40:48.132Z,34.93
2019-03-21T05:41:48.141Z,35.42
2019-03-21T05:42:48.107Z,35.42
2019-03-21T05:43:48.098Z,35.13
2019-03-21T05:44:48.086Z,35.23
2019-03-21T05:45:48.074Z,35.42
2019-03-21T05:46:48.085Z,35.23
2019-03-21T05:47:48.051Z,35.42
2019-03-21T05:48:48.040Z,34.93
2019-03-21T05:49:48.030Z,35.23
2019-03-21T05:50:48.019Z,35.13
2019-03-21T05:51:48.029Z,34.73
2019-03-21T05:52:48.018Z,35.53
2019-03-21T05:53:47.985Z,35.03
2019-03-21T05:54:47.975Z,35.53
2019-03-21T05:55:47.963Z,35.13
2019-03-21T05:56:47.952Z,35.53
2019-03-21T05:57:47.961Z,34.83
2019-03-21T05:58:47.930Z,35.13
2019-03-21T05:59:47.919Z,35.13
2019-03-21T06:00:51.197Z,35.23
2019-03-21T06:01:47.896Z,35.03
2019-03-21T06:02:47.907Z,34.93
2019-03-21T06:03:47.874Z,34.83
2019-03-21T06:04:47.864Z,34.93
2019-03-21T06:05:47.852Z,35.13
2019-03-21T06:06:47.841Z,34.93
2019-03-21T06:07:47.850Z,34.83
2019-03-21T06:08:47.818Z,34.81
2019-03-21T06:09:47.827Z,34.73
2019-03-21T06:10:47.796Z,34.93
2019-03-21T06:11:47.788Z,34.91
2019-03-21T06:12:47.800Z,34.91
2019-03-21T06:13:47.763Z,34.81
2019-03-21T06:14:47.755Z,34.93
2019-03-21T06:15:47.740Z,35.03
2019-03-21T06:16:47.732Z,35.03
2019-03-21T06:17:47.718Z,34.73
2019-03-21T06:18:47.728Z,35.03
2019-03-21T06:19:47.704Z,35.23
2019-03-21T06:20:47.690Z,35.23
2019-03-21T06:21:47.677Z,35.13
2019-03-21T06:22:47.662Z,35.13
2019-03-21T06:23:47.693Z,35.33
2019-03-21T06:24:47.642Z,35.03
2019-03-21T06:25:47.628Z,35.03
2019-03-21T06:26:50.218Z,35.23
2019-03-21T06:27:47.606Z,35.42
2019-03-21T06:28:47.617Z,34.93
2019-03-21T06:29:47.587Z,34.93
2019-03-21T06:30:47.576Z,35.13
2019-03-21T06:31:47.563Z,35.33
2019-03-21T06:32:47.558Z,35.23
2019-03-21T06:33:47.561Z,35.33
2019-03-21T06:34:47.529Z,35.33
2019-03-21T06:35:47.517Z,34.93
2019-03-21T06:36:47.507Z,35.63
2019-03-21T06:37:47.495Z,34.93
2019-03-21T06:38:47.504Z,35.42
2019-03-21T06:39:47.477Z,35.23
2019-03-21T06:40:47.463Z,34.93
2019-03-21T06:41:47.452Z,35.23
2019-03-21T06:42:47.439Z,35.51
2019-03-21T06:43:47.449Z,35.33
2019-03-21T06:44:47.438Z,35.11
2019-03-21T06:45:48.298Z,36.32
2019-03-21T06:46:49.751Z,36.13
2019-03-21T06:47:47.383Z,35.72
2019-03-21T06:48:47.373Z,36.02
2019-03-21T06:49:47.383Z,36.22
2019-03-21T06:50:47.350Z,36.22
2019-03-21T06:51:47.339Z,36.32
2019-03-21T06:52:47.331Z,37.12
2019-03-21T06:53:47.317Z,37.21
2019-03-21T06:54:47.327Z,36.21
2019-03-21T06:55:47.295Z,36.11
2019-03-21T06:56:47.283Z,36.51
2019-03-21T06:57:47.272Z,37.60
2019-03-21T06:58:47.263Z,37.70
2019-03-21T06:59:47.274Z,37.70
2019-03-21T07:00:47.263Z,37.21
2019-03-21T07:01:47.228Z,37.60
2019-03-21T07:02:47.216Z,33.61
2019-03-21T07:03:47.206Z,33.03
2019-03-21T07:04:47.217Z,31.96
2019-03-21T07:05:47.183Z,33.62
2019-03-21T07:06:47.172Z,33.69
2019-03-21T07:07:47.165Z,37.99
2019-03-21T07:08:47.154Z,37.54
2019-03-21T07:09:47.160Z,40.42
2019-03-21T07:10:47.130Z,43.40
2019-03-21T07:11:47.118Z,42.21
2019-03-21T07:12:47.106Z,43.06
2019-03-21T07:13:47.097Z,47.94
2019-03-21T07:14:47.104Z,48.11
2019-03-21T07:15:47.074Z,47.36
2019-03-21T07:16:47.060Z,44.19
2019-03-21T07:17:47.048Z,43.77
2019-03-21T07:18:47.039Z,42.24
2019-03-21T07:19:47.046Z,40.84
2019-03-21T07:20:47.018Z,41.35
2019-03-21T07:21:47.002Z,41.77
2019-03-21T07:22:46.991Z,42.07
2019-03-21T07:23:46.980Z,42.47
2019-03-21T07:24:46.968Z,40.86
2019-03-21T07:25:46.982Z,41.56
2019-03-21T07:26:47.912Z,41.67
2019-03-21T07:27:47.852Z,42.07
2019-03-21T07:28:47.038Z,41.47
2019-03-21T07:29:46.912Z,41.36
2019-03-21T07:30:46.925Z,41.97
2019-03-21T07:31:46.890Z,41.56
2019-03-21T07:32:46.880Z,41.87
2019-03-21T07:33:46.870Z,42.60
2019-03-21T07:34:46.858Z,41.49
2019-03-21T07:35:46.869Z,41.59
2019-03-21T07:36:46.835Z,42.82
2019-03-21T07:37:46.825Z,42.72
2019-03-21T07:38:46.813Z,42.23
2019-03-21T07:39:46.803Z,42.84
2019-03-21T07:40:46.813Z,43.85
2019-03-21T07:41:46.781Z,42.43
2019-03-21T07:42:46.768Z,43.02
2019-03-21T07:43:46.790Z,42.21
2019-03-21T07:44:46.747Z,43.00
2019-03-21T07:45:46.755Z,42.29
2019-03-21T07:46:46.724Z,42.78
2019-03-21T07:47:46.711Z,41.05
2019-03-21T07:48:46.701Z,40.03
2019-03-21T07:49:46.690Z,41.08
2019-03-21T07:50:46.702Z,42.21
2019-03-21T07:51:46.669Z,43.04
2019-03-21T07:52:46.658Z,44.48
2019-03-21T07:53:46.651Z,46.28
2019-03-21T07:54:46.635Z,45.50
2019-03-21T07:55:46.645Z,45.06
2019-03-21T07:56:46.612Z,44.33
2019-03-21T07:57:46.602Z,42.38
2019-03-21T07:58:46.597Z,41.53
2019-03-21T07:59:46.582Z,40.89
2019-03-21T08:00:46.593Z,40.37
2019-03-21T08:01:46.561Z,39.64
2019-03-21T08:02:46.545Z,39.95
2019-03-21T08:03:46.537Z,39.42
2019-03-21T08:04:46.525Z,39.31
2019-03-21T08:05:46.533Z,39.59
2019-03-21T08:06:46.504Z,39.17
2019-03-21T08:07:46.490Z,39.27
2019-03-21T08:08:46.478Z,38.35
2019-03-21T08:09:46.467Z,38.05
2019-03-21T08:10:46.480Z,39.05
2019-03-21T08:11:46.445Z,38.25
2019-03-21T08:12:46.436Z,38.23
2019-03-21T08:13:46.422Z,37.23
2019-03-21T08:14:46.411Z,37.33
2019-03-21T08:15:46.423Z,37.01
2019-03-21T08:16:46.391Z,37.21
2019-03-21T08:17:46.377Z,36.99
2019-03-21T08:18:46.368Z,37.29
2019-03-21T08:19:46.356Z,37.49
2019-03-21T08:20:56.028Z,37.49
2019-03-21T08:21:47.332Z,37.40
2019-03-21T08:22:46.321Z,36.79
2019-03-21T08:23:46.313Z,37.79
2019-03-21T08:24:46.300Z,37.77
2019-03-21T08:25:46.310Z,37.38
2019-03-21T08:26:46.276Z,37.18
2019-03-21T08:27:46.265Z,36.78
2019-03-21T08:28:46.258Z,36.78
2019-03-21T08:29:46.242Z,37.27
2019-03-21T08:30:46.270Z,37.26
2019-03-21T08:31:46.224Z,36.38
2019-03-21T08:32:46.207Z,37.38
2019-03-21T08:33:46.239Z,37.18
2019-03-21T08:34:46.211Z,36.88
2019-03-21T08:35:46.173Z,38.16
2019-03-21T08:36:46.223Z,37.66
2019-03-21T08:37:46.152Z,38.96
2019-03-21T08:38:46.145Z,38.66
2019-03-21T08:39:46.132Z,38.64
2019-03-21T08:40:46.116Z,39.46
2019-03-21T08:41:46.126Z,39.15
2019-03-21T08:42:46.094Z,38.54
2019-03-21T08:43:46.084Z,39.04
2019-03-21T08:44:46.072Z,39.34
2019-03-21T08:45:46.061Z,40.04
2019-03-21T08:46:46.069Z,39.54
2019-03-21T08:47:46.047Z,39.84
2019-03-21T08:48:46.026Z,40.12
2019-03-21T08:49:46.014Z,39.62
2019-03-21T08:50:46.002Z,40.12
2019-03-21T08:51:46.025Z,37.12
2019-03-21T08:52:45.980Z,38.64
2019-03-21T08:53:45.969Z,38.72
2019-03-21T08:54:45.960Z,39.72
2019-03-21T08:55:45.946Z,39.94
2019-03-21T08:56:45.957Z,40.72
2019-03-21T08:57:45.923Z,40.52
2019-03-21T08:58:45.915Z,40.22
2019-03-21T08:59:47.997Z,39.32
2019-03-21T09:00:46.296Z,39.40
2019-03-21T09:01:45.900Z,39.02
2019-03-21T09:02:45.869Z,39.02
2019-03-21T09:03:45.858Z,39.10
2019-03-21T09:04:45.844Z,38.80
2019-03-21T09:05:45.832Z,39.30
2019-03-21T09:06:45.842Z,39.10
2019-03-21T09:07:45.815Z,38.70
2019-03-21T09:08:45.800Z,37.70
2019-03-21T09:09:45.788Z,37.10
2019-03-21T09:10:45.778Z,37.90
2019-03-21T09:11:45.788Z,38.02
2019-03-21T09:12:45.755Z,37.72
2019-03-21T09:13:45.744Z,38.72
2019-03-21T09:14:45.737Z,36.22
2019-03-21T09:15:45.723Z,37.92
2019-03-21T09:16:45.731Z,35.13
2019-03-21T09:17:45.701Z,37.84
2019-03-21T09:18:45.700Z,37.14
2019-03-21T09:19:45.680Z,35.05
2019-03-21T09:20:45.665Z,38.76
2019-03-21T09:21:45.679Z,38.96
2019-03-21T09:22:45.644Z,37.76
2019-03-21T09:23:45.632Z,38.36
2019-03-21T09:24:45.622Z,38.36
2019-03-21T09:25:45.610Z,38.26
2019-03-21T09:26:45.621Z,37.96
2019-03-21T09:27:45.588Z,38.26
2019-03-21T09:28:45.577Z,38.46
2019-03-21T09:29:53.486Z,38.85
2019-03-21T09:30:46.557Z,36.36
2019-03-21T09:31:45.569Z,38.36
2019-03-21T09:32:45.537Z,36.46
2019-03-21T09:33:45.521Z,37.96
2019-03-21T09:34:45.575Z,38.46
2019-03-21T09:35:45.499Z,38.26
2019-03-21T09:36:45.524Z,37.96
2019-03-21T09:37:45.507Z,38.54
2019-03-21T09:38:45.468Z,37.74
2019-03-21T09:39:45.455Z,38.24
2019-03-21T09:40:45.443Z,38.04
2019-03-21T09:41:45.432Z,37.64
2019-03-21T09:42:45.442Z,38.02
2019-03-21T09:43:45.410Z,39.24
2019-03-21T09:44:45.399Z,38.14
2019-03-21T09:45:45.387Z,38.72
2019-03-21T09:46:50.749Z,35.83
2019-03-21T09:47:46.384Z,37.32
2019-03-21T09:48:45.360Z,38.22
2019-03-21T09:49:45.343Z,38.22
2019-03-21T09:50:45.333Z,37.02
2019-03-21T09:51:45.321Z,37.12
2019-03-21T09:52:45.333Z,37.92
2019-03-21T09:53:45.297Z,38.22
2019-03-21T09:54:45.287Z,37.32
2019-03-21T09:55:45.331Z,36.43
2019-03-21T09:56:45.265Z,37.62
2019-03-21T09:57:45.276Z,37.42
2019-03-21T09:58:45.245Z,36.72
2019-03-21T09:59:45.231Z,37.32
2019-03-21T10:00:45.219Z,34.93
2019-03-21T10:01:45.208Z,35.13
2019-03-21T10:02:45.218Z,36.93
2019-03-21T10:03:45.187Z,37.72
2019-03-21T10:04:45.175Z,35.83
2019-03-21T10:05:45.164Z,37.52
2019-03-21T10:06:45.155Z,37.32
2019-03-21T10:07:45.165Z,37.52
2019-03-21T10:08:45.131Z,37.23
2019-03-21T10:09:45.122Z,36.52
2019-03-21T10:10:45.109Z,37.51
2019-03-21T10:11:45.097Z,37.10
2019-03-21T10:12:45.107Z,37.21
2019-03-21T10:13:45.075Z,37.60
2019-03-21T10:14:45.063Z,37.51
2019-03-21T10:15:45.053Z,37.01
2019-03-21T10:16:45.042Z,36.71
2019-03-21T10:17:45.068Z,36.91
2019-03-21T10:18:45.019Z,35.21
2019-03-21T10:19:45.009Z,36.11
2019-03-21T10:20:44.997Z,35.11
2019-03-21T10:21:44.986Z,36.51
2019-03-21T10:22:44.974Z,34.91
2019-03-21T10:23:44.988Z,34.11
2019-03-21T10:24:44.953Z,35.81
2019-03-21T10:25:44.942Z,36.61
2019-03-21T10:26:44.932Z,36.31
2019-03-21T10:27:44.930Z,36.21
2019-03-21T10:28:44.931Z,35.81
2019-03-21T10:29:44.897Z,37.30
2019-03-21T10:30:44.892Z,33.91
2019-03-21T10:31:44.875Z,36.41
2019-03-21T10:32:44.868Z,37.10
2019-03-21T10:33:45.038Z,37.21
2019-03-21T10:34:44.843Z,38.20
2019-03-21T10:35:44.832Z,38.90
2019-03-21T10:36:44.819Z,39.00
2019-03-21T10:37:44.808Z,35.41
2019-03-21T10:38:44.818Z,37.90
2019-03-21T10:39:44.789Z,39.28
2019-03-21T10:40:44.775Z,38.80
2019-03-21T10:41:44.765Z,38.68
2019-03-21T10:42:44.752Z,39.48
2019-03-21T10:43:44.779Z,38.98
2019-03-21T10:44:44.730Z,38.89
2019-03-21T10:45:44.719Z,38.89
2019-03-21T10:46:44.708Z,39.16
2019-03-21T10:47:44.697Z,37.67
2019-03-21T10:48:44.707Z,35.68
2019-03-21T10:49:44.675Z,37.57
2019-03-21T10:50:44.663Z,37.87
2019-03-21T10:51:54.543Z,37.97
2019-03-21T10:52:45.639Z,37.97
2019-03-21T10:53:44.652Z,38.37
2019-03-21T10:54:44.620Z,36.97
2019-03-21T10:55:44.611Z,37.57
2019-03-21T10:56:44.597Z,36.97
2019-03-21T10:57:44.585Z,35.47
2019-03-21T10:58:44.596Z,33.58
2019-03-21T10:59:44.562Z,31.79
2019-03-21T11:00:44.552Z,32.40
2019-03-21T11:01:44.550Z,32.02
2019-03-21T11:02:44.530Z,36.31
2019-03-21T11:03:44.556Z,36.13
2019-03-21T11:04:44.508Z,35.93
2019-03-21T11:05:44.498Z,37.30
2019-03-21T11:06:44.486Z,36.61
2019-03-21T11:07:44.475Z,36.01
2019-03-21T11:08:44.464Z,37.60
2019-03-21T11:09:44.474Z,34.11
2019-03-21T11:10:47.016Z,35.59
2019-03-21T11:11:44.431Z,36.39
2019-03-21T11:12:44.420Z,36.39
2019-03-21T11:13:44.409Z,36.69
2019-03-21T11:14:44.417Z,35.99
2019-03-21T11:15:44.392Z,35.99
2019-03-21T11:16:44.375Z,35.39
2019-03-21T11:17:44.366Z,36.27
2019-03-21T11:18:44.353Z,36.47
2019-03-21T11:19:44.364Z,35.88
2019-03-21T11:20:44.331Z,34.98
2019-03-21T11:21:44.321Z,33.98
2019-03-21T11:22:44.308Z,33.18
2019-03-21T11:23:44.299Z,35.17
2019-03-21T11:24:44.307Z,33.97
2019-03-21T11:25:44.276Z,33.28
2019-03-21T11:26:44.264Z,35.47
2019-03-21T11:27:44.252Z,35.96
2019-03-21T11:28:44.242Z,35.08
2019-03-21T11:29:44.252Z,35.46
2019-03-21T11:30:44.218Z,36.07
2019-03-21T11:31:44.216Z,35.86
2019-03-21T11:32:44.200Z,35.47
2019-03-21T11:33:44.185Z,35.56
2019-03-21T11:34:44.198Z,36.25
2019-03-21T11:35:44.163Z,36.05
2019-03-21T11:36:44.152Z,33.76
2019-03-21T11:37:44.143Z,35.06
2019-03-21T11:38:44.186Z,35.36
2019-03-21T11:39:44.138Z,35.66
2019-03-21T11:40:44.107Z,31.67
2019-03-21T11:41:44.096Z,34.68
2019-03-21T11:42:44.086Z,31.07
2019-03-21T11:43:44.074Z,34.58
2019-03-21T11:44:44.116Z,30.41
2019-03-21T11:45:44.059Z,30.02
2019-03-21T11:46:44.051Z,29.24
2019-03-21T11:47:44.030Z,32.36
2019-03-21T11:48:44.035Z,35.78
2019-03-21T11:49:44.034Z,35.28
2019-03-21T11:50:44.019Z,31.59
2019-03-21T11:51:43.985Z,33.39
2019-03-21T11:52:43.974Z,29.90
2019-03-21T11:53:43.965Z,29.01
2019-03-21T11:54:43.969Z,34.24
2019-03-21T11:55:43.966Z,30.55
2019-03-21T11:56:43.933Z,31.05
2019-03-21T11:57:43.917Z,33.46
2019-03-21T11:58:43.908Z,35.06
2019-03-21T11:59:51.672Z,34.48
2019-03-21T12:00:45.350Z,35.08
2019-03-21T12:01:43.875Z,32.17
2019-03-21T12:02:43.866Z,33.78
2019-03-21T12:03:43.852Z,35.88
2019-03-21T12:04:43.843Z,34.66
2019-03-21T12:05:43.852Z,34.66
2019-03-21T12:06:43.817Z,34.96
2019-03-21T12:07:43.812Z,35.66
2019-03-21T12:08:43.798Z,33.66
2019-03-21T12:09:43.783Z,36.05
2019-03-21T12:10:43.794Z,37.25
2019-03-21T12:11:43.764Z,35.25
2019-03-21T12:12:43.749Z,31.52
2019-03-21T12:13:43.740Z,31.14
2019-03-21T12:14:43.782Z,32.04
2019-03-21T12:15:43.737Z,36.25
2019-03-21T12:16:43.705Z,36.35
2019-03-21T12:17:43.702Z,37.25
2019-03-21T12:18:43.682Z,37.23
2019-03-21T12:19:43.671Z,36.01
2019-03-21T12:20:43.681Z,35.19
2019-03-21T12:21:43.648Z,35.19
2019-03-21T12:22:43.640Z,35.28
2019-03-21T12:23:44.118Z,35.08
2019-03-21T12:24:43.616Z,34.06
2019-03-21T12:25:43.626Z,35.06
2019-03-21T12:26:43.592Z,35.85
2019-03-21T12:27:43.582Z,35.05
2019-03-21T12:28:43.571Z,35.44
2019-03-21T12:29:43.559Z,35.44
2019-03-21T12:30:43.576Z,35.93
2019-03-21T12:31:43.537Z,34.73
2019-03-21T12:32:43.525Z,35.51
2019-03-21T12:33:43.517Z,35.21
2019-03-21T12:34:43.506Z,35.21
2019-03-21T12:35:43.492Z,34.81
2019-03-21T12:36:43.507Z,34.89
2019-03-21T12:37:43.470Z,31.81
2019-03-21T12:38:43.460Z,34.99
2019-03-21T12:39:43.448Z,34.59
2019-03-21T12:40:43.469Z,34.30
2019-03-21T12:41:43.445Z,34.89
2019-03-21T12:42:43.419Z,33.90
2019-03-21T12:43:43.453Z,34.89
2019-03-21T12:44:43.392Z,33.60
2019-03-21T12:45:43.384Z,33.58
2019-03-21T12:46:43.391Z,35.89
2019-03-21T12:47:43.362Z,34.99
2019-03-21T12:48:43.347Z,35.39
2019-03-21T12:49:43.338Z,34.68
2019-03-21T12:50:43.333Z,35.88
2019-03-21T12:51:45.789Z,34.98
2019-03-21T12:52:43.311Z,35.77